Time;durP1;ratioP1;P1;durP2;ratioP2;P2;SDS_P1;SDS_P2;PMS_P1;PMS_P2;Temp;Humidity;BMP_temperature;BMP_pressure;BME280_temperature;BME280_humidity;BME280_pressure;Samples;Min_cycle;Max_cycle;Signal;HPM_P1;HPM_P2
2022/05/08 00:02:23;;;;;;;25.80;5.30;;;10.00;99.90;;;;;;4975707;28;20039;-71
2022/05/08 00:04:52;;;;;;;21.35;4.95;;;10.00;99.90;;;;;;4974444;28;20042;-71
2022/05/08 00:07:22;;;;;;;30.00;5.88;;;9.90;99.90;;;;;;4973951;28;20077;-71
2022/05/08 00:09:49;;;;;;;24.95;5.82;;;9.90;99.90;;;;;;4974428;28;20144;-71
2022/05/08 00:12:16;;;;;;;25.92;5.05;;;9.90;99.90;;;;;;4975497;28;20440;-72
2022/05/08 00:14:43;;;;;;;29.77;5.53;;;9.80;99.90;;;;;;4974642;28;20504;-71
2022/05/08 00:17:13;;;;;;;24.63;5.13;;;9.80;99.90;;;;;;4974399;28;20441;-72
2022/05/08 00:19:39;;;;;;;25.42;5.43;;;9.70;99.90;;;;;;4973626;28;20078;-72
2022/05/08 00:22:06;;;;;;;28.88;5.70;;;9.70;99.90;;;;;;4974276;28;20117;-71
2022/05/08 00:24:35;;;;;;;27.70;5.35;;;9.60;99.90;;;;;;4975479;28;20437;-71
2022/05/08 00:27:00;;;;;;;26.73;5.78;;;9.60;99.90;;;;;;4974031;28;20043;-72
2022/05/08 00:29:26;;;;;;;22.70;5.68;;;9.50;99.90;;;;;;4974112;28;20054;-72
2022/05/08 00:31:52;;;;;;;25.50;5.63;;;9.50;99.90;;;;;;4974051;28;20509;-72
2022/05/08 00:34:17;;;;;;;29.00;5.88;;;9.40;99.90;;;;;;4974011;28;20061;-72
2022/05/08 00:36:43;;;;;;;27.00;5.65;;;9.40;99.90;;;;;;4974070;28;20043;-72
2022/05/08 00:39:09;;;;;;;19.27;5.80;;;9.30;99.90;;;;;;4974061;28;20041;-72
2022/05/08 00:41:34;;;;;;;25.38;5.85;;;9.30;99.90;;;;;;4973615;28;20039;-72
2022/05/08 00:44:00;;;;;;;24.15;6.30;;;9.20;99.90;;;;;;4957964;28;20050;-72
2022/05/08 00:46:27;;;;;;;20.15;5.32;;;9.20;99.90;;;;;;4973990;28;20034;-72
2022/05/08 00:48:53;;;;;;;27.88;5.93;;;9.10;99.90;;;;;;4973824;28;20424;-72
2022/05/08 00:51:19;;;;;;;26.05;5.82;;;9.10;99.90;;;;;;4973392;28;20133;-72
2022/05/08 00:53:51;;;;;;;27.08;5.88;;;9.00;99.90;;;;;;4973853;28;20089;-72
2022/05/08 00:56:18;;;;;;;19.63;5.13;;;9.00;99.90;;;;;;4974867;28;20500;-72
2022/05/08 00:58:47;;;;;;;23.73;5.85;;;8.90;99.90;;;;;;4973441;28;20406;-72
2022/05/08 01:01:13;;;;;;;26.98;6.35;;;8.90;99.90;;;;;;4973380;28;20398;-72
2022/05/08 01:03:40;;;;;;;25.33;5.50;;;8.90;99.90;;;;;;4973563;28;20050;-71
2022/05/08 01:06:11;;;;;;;23.63;5.13;;;8.80;99.90;;;;;;4973333;28;20493;-72
2022/05/08 01:08:41;;;;;;;23.40;5.68;;;8.80;99.90;;;;;;4973536;28;20438;-72
2022/05/08 01:11:08;;;;;;;24.10;5.78;;;8.70;99.90;;;;;;4972926;28;20513;-72
2022/05/08 01:13:35;;;;;;;25.52;6.10;;;8.70;99.90;;;;;;4973189;28;20512;-72
2022/05/08 01:16:01;;;;;;;23.27;5.43;;;8.70;99.90;;;;;;4973114;28;20429;-72
2022/05/08 01:18:27;;;;;;;29.30;5.85;;;8.70;99.90;;;;;;4972266;28;20047;-72
2022/05/08 01:20:53;;;;;;;22.60;5.15;;;8.60;99.90;;;;;;4973084;28;20050;-72
2022/05/08 01:23:19;;;;;;;25.13;5.35;;;8.60;99.90;;;;;;4973153;28;20035;-72
2022/05/08 01:25:53;;;;;;;22.90;5.30;;;8.60;99.90;;;;;;4973245;28;20053;-72
2022/05/08 01:28:20;;;;;;;25.05;5.40;;;8.50;99.90;;;;;;4974199;28;20449;-72
2022/05/08 01:30:47;;;;;;;21.17;6.00;;;8.50;99.90;;;;;;4972867;28;20050;-72
2022/05/08 01:33:13;;;;;;;23.10;5.32;;;8.40;99.90;;;;;;4972934;28;20489;-72
2022/05/08 01:35:41;;;;;;;23.70;5.70;;;8.40;99.90;;;;;;4974198;28;20039;-72
2022/05/08 01:38:07;;;;;;;23.25;5.65;;;8.30;99.90;;;;;;4972620;28;20061;-72
2022/05/08 01:40:33;;;;;;;23.17;5.45;;;8.30;99.90;;;;;;4973759;28;20066;-72
2022/05/08 01:42:59;;;;;;;23.67;6.38;;;8.20;99.90;;;;;;4972540;28;20505;-72
2022/05/08 01:45:25;;;;;;;26.67;5.97;;;8.20;99.90;;;;;;4972662;28;20540;-71
2022/05/08 01:50:39;;;;;;;23.33;5.68;;;8.20;99.90;;;;;;4973514;28;20498;-71
2022/05/08 01:53:05;;;;;;;18.70;4.40;;;8.20;99.90;;;;;;4972556;28;20636;-72
2022/05/08 01:55:31;;;;;;;18.80;4.78;;;8.10;99.90;;;;;;4973707;28;20046;-72
2022/05/08 01:57:57;;;;;;;17.38;5.28;;;8.10;99.90;;;;;;4972218;28;20105;-72
2022/05/08 02:00:23;;;;;;;24.35;5.60;;;8.10;99.90;;;;;;4972100;28;20081;-72
2022/05/08 02:02:49;;;;;;;21.45;5.78;;;8.00;99.90;;;;;;4973472;28;20497;-72
2022/05/08 02:05:22;;;;;;;25.95;6.20;;;8.00;99.90;;;;;;4971342;28;20031;-72
2022/05/08 02:07:49;;;;;;;24.10;5.65;;;8.00;99.90;;;;;;4951458;29;20454;-72
2022/05/08 02:10:17;;;;;;;21.60;5.20;;;7.90;99.90;;;;;;4950979;29;20039;-72
2022/05/08 02:12:43;;;;;;;22.88;6.10;;;7.90;99.90;;;;;;4952071;28;20490;-72
2022/05/08 02:15:10;;;;;;;19.08;5.50;;;7.90;99.90;;;;;;4950901;29;20540;-72
2022/05/08 02:17:36;;;;;;;20.17;5.63;;;7.80;99.90;;;;;;4950736;29;20127;-72
2022/05/08 02:20:03;;;;;;;23.48;5.90;;;7.80;99.90;;;;;;4950709;29;20744;-72
2022/05/08 02:22:29;;;;;;;20.95;5.70;;;7.80;99.90;;;;;;4950825;29;20414;-72
2022/05/08 02:24:54;;;;;;;16.42;5.25;;;7.80;99.90;;;;;;4953404;28;20043;-71
2022/05/08 02:27:20;;;;;;;19.35;5.43;;;7.80;99.90;;;;;;4952848;29;20039;-71
2022/05/08 02:29:51;;;;;;;21.25;6.38;;;7.70;99.90;;;;;;4952565;28;20134;-71
2022/05/08 02:32:17;;;;;;;17.60;4.93;;;7.70;99.90;;;;;;4952758;29;20398;-72
2022/05/08 02:34:43;;;;;;;25.00;5.43;;;7.60;99.90;;;;;;4952942;29;20441;-72
2022/05/08 02:37:08;;;;;;;25.27;5.15;;;7.60;99.90;;;;;;4952686;29;20051;-72
2022/05/08 02:39:34;;;;;;;19.45;5.15;;;7.50;99.90;;;;;;4952564;29;20122;-72
2022/05/08 02:42:00;;;;;;;20.27;5.30;;;7.50;99.90;;;;;;4952770;29;20050;-72
2022/05/08 02:44:25;;;;;;;19.10;5.93;;;7.50;99.90;;;;;;4952774;29;20078;-72
2022/05/08 02:46:51;;;;;;;21.83;6.00;;;7.50;99.90;;;;;;4952688;29;20561;-72
2022/05/08 02:49:17;;;;;;;25.63;5.78;;;7.40;99.90;;;;;;4952771;29;20098;-72
2022/05/08 02:51:42;;;;;;;19.00;5.35;;;7.40;99.90;;;;;;4952188;29;20043;-72
2022/05/08 02:54:08;;;;;;;27.45;6.40;;;7.30;99.90;;;;;;4953641;28;20043;-72
2022/05/08 02:59:18;;;;;;;20.02;5.22;;;7.30;99.90;;;;;;4952638;29;20481;-72
2022/05/08 03:01:44;;;;;;;24.98;5.88;;;7.30;99.90;;;;;;4953367;28;20079;-72
2022/05/08 03:04:09;;;;;;;22.75;5.20;;;7.30;99.90;;;;;;4952617;29;20043;-72
2022/05/08 03:06:35;;;;;;;21.75;5.25;;;7.20;99.90;;;;;;4952498;29;20494;-72
2022/05/08 03:09:01;;;;;;;19.63;6.07;;;7.20;99.90;;;;;;4952689;29;20085;-72
2022/05/08 03:11:28;;;;;;;22.85;5.75;;;7.20;99.90;;;;;;4968381;28;20055;-73
2022/05/08 03:13:55;;;;;;;18.13;5.32;;;7.20;99.90;;;;;;4953638;28;20039;-72
2022/05/08 03:16:22;;;;;;;20.75;5.85;;;7.20;99.90;;;;;;4952473;29;20043;-72
2022/05/08 03:18:48;;;;;;;25.55;6.07;;;7.10;99.90;;;;;;4952187;29;20075;-72
2022/05/08 03:21:15;;;;;;;20.08;5.20;;;7.10;99.90;;;;;;4953035;28;20047;-72
2022/05/08 03:23:42;;;;;;;19.10;4.85;;;7.10;99.90;;;;;;4953480;28;20066;-72
2022/05/08 03:26:08;;;;;;;25.58;6.00;;;7.10;99.90;;;;;;4953439;28;20031;-72
2022/05/08 03:28:35;;;;;;;17.23;4.93;;;7.00;99.90;;;;;;4952365;29;20073;-72
2022/05/08 03:31:02;;;;;;;17.63;4.97;;;7.00;99.90;;;;;;4951737;29;20054;-72
2022/05/08 03:33:28;;;;;;;23.63;5.10;;;7.00;99.90;;;;;;4952038;29;20043;-72
2022/05/08 03:35:54;;;;;;;13.27;4.60;;;7.00;99.90;;;;;;4953566;28;20039;-72
2022/05/08 03:38:21;;;;;;;16.95;4.82;;;6.90;99.90;;;;;;4952031;29;20058;-72
2022/05/08 03:40:47;;;;;;;16.00;4.88;;;6.90;99.90;;;;;;4952444;28;20054;-72
2022/05/08 03:43:13;;;;;;;17.65;3.95;;;6.80;99.90;;;;;;4955512;29;20043;-72
2022/05/08 03:45:39;;;;;;;11.60;4.22;;;6.80;99.90;;;;;;4955594;29;20098;-71
2022/05/08 03:48:05;;;;;;;14.93;3.92;;;6.80;99.90;;;;;;4956648;28;20047;-71
2022/05/08 03:50:31;;;;;;;12.75;4.70;;;6.80;99.90;;;;;;4955166;29;20090;-71
2022/05/08 03:52:58;;;;;;;13.82;4.95;;;6.70;99.90;;;;;;4955239;29;20054;-71
2022/05/08 03:55:24;;;;;;;11.93;4.05;;;6.70;99.90;;;;;;4956702;28;20078;-71
2022/05/08 03:57:50;;;;;;;5.47;2.85;;;6.70;99.90;;;;;;4955371;29;20475;-71
2022/05/08 04:00:17;;;;;;;36.20;3.30;;;6.70;99.90;;;;;;4954959;29;20098;-71
2022/05/08 04:02:43;;;;;;;12.30;2.20;;;6.60;99.90;;;;;;4955083;29;20047;-71
2022/05/08 04:05:09;;;;;;;6.97;1.77;;;6.50;99.90;;;;;;4955194;29;20054;-71
2022/05/08 04:07:37;;;;;;;117.07;5.60;;;6.40;99.90;;;;;;4955148;29;20055;-71
2022/05/08 04:10:03;;;;;;;6.80;2.30;;;6.30;99.90;;;;;;4956149;28;20039;-71
2022/05/08 04:12:29;;;;;;;5.43;2.42;;;6.30;99.90;;;;;;4954953;29;20065;-71
2022/05/08 04:14:54;;;;;;;5.78;2.22;;;6.20;99.90;;;;;;4955468;29;20094;-72
2022/05/08 04:17:20;;;;;;;6.45;2.70;;;6.20;99.90;;;;;;4954810;29;20051;-72
2022/05/08 04:19:46;;;;;;;8.23;2.58;;;6.20;99.90;;;;;;4955955;29;20053;-72
2022/05/08 04:24:57;;;;;;;9.90;2.88;;;6.10;99.90;;;;;;4954855;29;20043;-72
2022/05/08 04:27:23;;;;;;;6.03;3.53;;;6.00;99.90;;;;;;4955940;28;20043;-72
2022/05/08 04:29:49;;;;;;;9.23;3.78;;;6.00;99.90;;;;;;4955648;28;20050;-72
2022/05/08 04:32:15;;;;;;;6.05;4.05;;;5.90;99.90;;;;;;4954844;29;20051;-73
2022/05/08 04:34:41;;;;;;;9.45;4.28;;;5.90;99.90;;;;;;4965371;28;20057;-72
2022/05/08 04:37:06;;;;;;;6.50;4.18;;;6.00;99.90;;;;;;4972936;28;20130;-72
2022/05/08 04:39:32;;;;;;;6.40;3.80;;;5.90;99.90;;;;;;4973274;28;20089;-72
2022/05/08 04:41:59;;;;;;;8.30;4.10;;;5.90;99.90;;;;;;4956602;28;20038;-72
2022/05/08 04:44:24;;;;;;;13.10;4.50;;;5.90;99.90;;;;;;4973951;28;20049;-72
2022/05/08 04:46:50;;;;;;;14.23;4.57;;;5.90;99.90;;;;;;4971886;28;20125;-72
2022/05/08 04:49:16;;;;;;;13.77;5.00;;;5.90;99.90;;;;;;4967875;28;20039;-73
2022/05/08 04:51:41;;;;;;;17.42;5.20;;;5.90;99.90;;;;;;4974056;28;20121;-73
2022/05/08 04:54:07;;;;;;;12.95;5.80;;;5.80;99.90;;;;;;4973098;28;20049;-72
2022/05/08 04:56:33;;;;;;;9.75;5.07;;;5.90;99.90;;;;;;4973375;28;20125;-72
2022/05/08 04:58:58;;;;;;;16.00;5.78;;;5.90;99.90;;;;;;4972807;28;20043;-72
2022/05/08 05:01:25;;;;;;;18.25;5.97;;;5.90;99.90;;;;;;4966906;28;20098;-73
2022/05/08 05:03:51;;;;;;;16.67;5.93;;;5.90;99.90;;;;;;4973396;28;20077;-72
2022/05/08 05:06:17;;;;;;;21.42;6.90;;;6.00;99.90;;;;;;4974640;28;20042;-72
2022/05/08 05:08:43;;;;;;;19.23;6.43;;;6.10;99.90;;;;;;4974540;28;20034;-72
2022/05/08 05:11:10;;;;;;;14.77;6.05;;;6.20;99.90;;;;;;4973219;28;20493;-72
2022/05/08 05:13:36;;;;;;;15.20;5.80;;;6.20;99.90;;;;;;4973310;28;20046;-72
2022/05/08 05:16:03;;;;;;;16.08;5.93;;;6.30;99.90;;;;;;4972719;28;20038;-72
2022/05/08 05:18:29;;;;;;;20.20;7.38;;;6.40;99.90;;;;;;4972929;28;20045;-72
2022/05/08 05:20:54;;;;;;;19.83;6.22;;;6.50;99.90;;;;;;4966094;28;20035;-72
2022/05/08 05:23:20;;;;;;;16.73;6.15;;;6.60;99.90;;;;;;4972956;28;20101;-72
2022/05/08 05:25:46;;;;;;;17.35;6.50;;;6.70;99.90;;;;;;4974245;28;20054;-72
2022/05/08 05:28:11;;;;;;;21.83;6.00;;;6.80;99.90;;;;;;4972856;28;20043;-72
2022/05/08 05:30:37;;;;;;;20.88;6.18;;;6.90;99.90;;;;;;4974098;28;20117;-72
2022/05/08 05:33:03;;;;;;;22.70;6.65;;;6.90;99.90;;;;;;4973140;28;20042;-72
2022/05/08 05:35:28;;;;;;;18.13;6.15;;;7.10;99.90;;;;;;4973149;28;20109;-72
2022/05/08 05:37:54;;;;;;;21.58;6.05;;;7.10;99.90;;;;;;4972934;28;20047;-72
2022/05/08 05:40:20;;;;;;;21.30;5.38;;;7.20;99.90;;;;;;4972687;28;20053;-72
2022/05/08 05:42:47;;;;;;;19.15;5.43;;;7.40;99.90;;;;;;4971326;28;20520;-72
2022/05/08 05:45:12;;;;;;;18.27;5.03;;;7.50;99.90;;;;;;4972486;28;20117;-72
2022/05/08 05:47:50;;;;;;;14.90;5.07;;;7.60;99.90;;;;;;4972323;28;20546;-72
2022/05/08 05:50:17;;;;;;;14.85;5.13;;;7.70;99.90;;;;;;4966617;28;20058;-72
2022/05/08 05:52:43;;;;;;;16.73;4.78;;;7.80;99.90;;;;;;4972356;28;20042;-72
2022/05/08 05:55:09;;;;;;;16.25;4.85;;;7.80;99.90;;;;;;4972505;28;20416;-72
2022/05/08 05:57:35;;;;;;;13.55;4.00;;;7.90;99.90;;;;;;4972459;28;20105;-72
2022/05/08 06:00:05;;;;;;;18.30;4.38;;;8.00;99.90;;;;;;4972439;28;20078;-72
2022/05/08 06:02:31;;;;;;;15.63;4.53;;;8.10;99.90;;;;;;4971395;28;20448;-72
2022/05/08 06:04:57;;;;;;;13.30;4.32;;;8.20;99.90;;;;;;4967001;28;20035;-72
2022/05/08 06:07:22;;;;;;;15.93;4.30;;;8.30;99.90;;;;;;4968891;28;20052;-72
2022/05/08 06:09:48;;;;;;;18.95;4.78;;;8.40;99.90;;;;;;4962721;28;20529;-72
2022/05/08 06:12:14;;;;;;;14.07;4.20;;;8.50;99.90;;;;;;4969965;28;20045;-72
2022/05/08 06:14:41;;;;;;;16.27;4.10;;;8.60;99.90;;;;;;4971101;28;20049;-72
2022/05/08 06:17:07;;;;;;;14.63;4.40;;;8.70;99.90;;;;;;4969668;28;20042;-72
2022/05/08 06:19:32;;;;;;;15.10;4.18;;;8.70;99.90;;;;;;4968136;28;20390;-72
2022/05/08 06:21:58;;;;;;;15.75;3.90;;;8.80;99.90;;;;;;4970968;28;20030;-72
2022/05/08 06:24:24;;;;;;;17.60;3.80;;;8.90;99.90;;;;;;4970557;28;20557;-72
2022/05/08 06:26:50;;;;;;;14.40;3.75;;;9.00;99.90;;;;;;4971164;28;20038;-72
2022/05/08 06:29:15;;;;;;;13.27;3.80;;;9.10;99.90;;;;;;4970729;28;20038;-72
2022/05/08 06:31:41;;;;;;;15.63;3.78;;;9.20;99.90;;;;;;4966069;28;20042;-72
2022/05/08 06:34:08;;;;;;;12.43;3.50;;;9.30;99.90;;;;;;4963229;28;20035;-72
2022/05/08 06:36:34;;;;;;;18.73;3.38;;;9.40;99.90;;;;;;4966008;28;20046;-72
2022/05/08 06:38:59;;;;;;;16.65;3.20;;;9.60;99.90;;;;;;4973198;28;20490;-72
2022/05/08 06:41:29;;;;;;;11.90;2.83;;;9.60;99.90;;;;;;4972772;28;20039;-72
2022/05/08 06:43:55;;;;;;;14.10;2.83;;;9.80;99.90;;;;;;4972147;28;20035;-72
2022/05/08 06:46:21;;;;;;;12.18;2.78;;;9.90;99.90;;;;;;4971832;28;20508;-72
2022/05/08 06:48:49;;;;;;;15.15;2.92;;;10.10;99.90;;;;;;4971694;28;20057;-72
2022/05/08 06:51:15;;;;;;;11.05;2.45;;;10.10;99.90;;;;;;4971296;28;20034;-72
2022/05/08 06:53:43;;;;;;;13.23;2.75;;;10.30;99.90;;;;;;4971338;28;20046;-72
2022/05/08 06:56:13;;;;;;;12.82;2.55;;;10.40;99.90;;;;;;4972797;28;20444;-72
2022/05/08 07:01:42;;;;;;;10.93;2.30;;;10.90;99.90;;;;;;4967724;28;20069;-72
2022/05/08 07:04:09;;;;;;;9.80;2.38;;;11.10;99.90;;;;;;4966499;28;20157;-72
2022/05/08 07:06:36;;;;;;;10.82;2.53;;;11.30;99.90;;;;;;4971236;28;20097;-72
2022/05/08 07:09:03;;;;;;;10.00;2.45;;;11.40;99.90;;;;;;4964122;28;20066;-73
2022/05/08 07:11:30;;;;;;;10.73;2.40;;;11.40;99.90;;;;;;4969926;28;20039;-72
2022/05/08 07:13:57;;;;;;;8.60;1.80;;;11.50;99.90;;;;;;4971155;28;20055;-72
2022/05/08 07:16:23;;;;;;;10.15;2.05;;;11.60;99.90;;;;;;4972759;28;20042;-72
2022/05/08 07:18:49;;;;;;;8.90;1.90;;;11.70;99.90;;;;;;4974758;28;20540;-72
2022/05/08 07:21:15;;;;;;;10.68;2.00;;;11.60;99.90;;;;;;4962874;28;20045;-72
2022/05/08 07:23:41;;;;;;;9.93;2.40;;;11.60;99.90;;;;;;4972885;28;20045;-72
2022/05/08 07:26:06;;;;;;;11.07;2.20;;;11.50;99.90;;;;;;4968392;28;20501;-72
2022/05/08 07:28:32;;;;;;;7.78;2.03;;;11.50;99.90;;;;;;4986908;28;20043;-72
2022/05/08 07:30:58;;;;;;;12.05;2.20;;;11.60;99.90;;;;;;4980764;28;20074;-72
2022/05/08 07:33:24;;;;;;;11.30;2.20;;;11.70;99.90;;;;;;4969928;28;20129;-72
2022/05/08 07:38:34;;;;;;;10.00;2.58;;;12.20;99.90;;;;;;4968827;28;20142;-72
2022/05/08 07:41:01;;;;;;;13.25;2.53;;;12.40;99.90;;;;;;4972885;28;20712;-73
2022/05/08 07:43:27;;;;;;;13.15;2.30;;;12.50;99.90;;;;;;4972789;28;20062;-73
2022/05/08 07:45:53;;;;;;;9.20;2.20;;;12.50;99.90;;;;;;4974521;28;20482;-72
2022/05/08 07:48:19;;;;;;;10.50;2.13;;;12.40;99.90;;;;;;4964580;28;20047;-72
2022/05/08 07:50:47;;;;;;;10.15;2.58;;;12.40;99.90;;;;;;4966753;28;20054;-72
2022/05/08 07:53:13;;;;;;;11.27;2.10;;;12.30;99.90;;;;;;4973753;28;20367;-72
2022/05/08 07:55:39;;;;;;;14.15;2.65;;;12.20;99.90;;;;;;4974846;28;20050;-72
2022/05/08 07:58:05;;;;;;;6.28;1.92;;;12.20;99.90;;;;;;4972651;28;20075;-72
2022/05/08 08:00:31;;;;;;;5.90;1.80;;;12.20;99.90;;;;;;4968529;28;20049;-73
2022/05/08 08:02:57;;;;;;;9.88;2.08;;;12.40;99.90;;;;;;4970485;28;20118;-73
2022/05/08 08:05:23;;;;;;;8.65;2.17;;;12.50;99.90;;;;;;4965285;28;20552;-73
2022/05/08 08:07:50;;;;;;;11.32;2.25;;;12.60;99.90;;;;;;4963240;28;20549;-73
2022/05/08 08:10:16;;;;;;;9.65;1.90;;;12.60;99.90;;;;;;4974418;28;20409;-72
2022/05/08 08:12:42;;;;;;;9.45;2.72;;;12.70;99.90;;;;;;4965850;28;20050;-73
2022/05/08 08:15:09;;;;;;;13.57;2.67;;;12.90;99.90;;;;;;4971746;28;20060;-73
2022/05/08 08:17:35;;;;;;;9.77;2.35;;;13.00;99.90;;;;;;4972246;28;20065;-73
2022/05/08 08:20:00;;;;;;;10.52;1.88;;;13.10;99.90;;;;;;4974204;28;20035;-72
2022/05/08 08:22:26;;;;;;;12.05;2.22;;;13.30;99.90;;;;;;4970389;28;20031;-71
2022/05/08 08:24:52;;;;;;;8.77;2.10;;;13.60;99.90;;;;;;4972551;28;20055;-72
2022/05/08 08:27:19;;;;;;;10.20;1.90;;;13.70;99.90;;;;;;4974862;28;20490;-72
2022/05/08 08:29:45;;;;;;;12.75;2.28;;;13.80;99.90;;;;;;4967044;28;20039;-72
2022/05/08 08:32:11;;;;;;;9.50;2.45;;;14.00;99.90;;;;;;4974196;28;20541;-72
2022/05/08 08:34:36;;;;;;;10.73;2.13;;;14.20;98.40;;;;;;4967776;28;20038;-72
2022/05/08 08:37:02;;;;;;;11.70;2.17;;;14.40;96.80;;;;;;4966825;28;20494;-72
2022/05/08 08:39:28;;;;;;;12.35;2.40;;;14.50;91.70;;;;;;4966199;28;20039;-71
2022/05/08 08:42:21;;;;;;;5.97;1.63;;;14.30;93.90;;;;;;4966496;28;20043;-72
2022/05/08 08:47:42;;;;;;;9.13;2.20;;;14.30;94.80;;;;;;4969482;28;20497;-72
2022/05/08 08:50:09;;;;;;;8.35;2.10;;;14.20;92.60;;;;;;4969410;28;20657;-72
2022/05/08 08:52:36;;;;;;;10.70;2.45;;;14.10;92.10;;;;;;4963399;28;20490;-72
2022/05/08 08:55:04;;;;;;;9.05;2.20;;;14.10;94.50;;;;;;4966015;28;20186;-72
2022/05/08 08:57:29;;;;;;;9.82;2.15;;;14.20;95.80;;;;;;4967026;28;20043;-72
2022/05/08 08:59:55;;;;;;;11.35;2.42;;;14.40;94.40;;;;;;4964464;28;20038;-72
2022/05/08 09:02:21;;;;;;;9.90;1.98;;;14.70;93.40;;;;;;4965193;28;20615;-73
2022/05/08 09:04:49;;;;;;;11.77;2.22;;;14.90;92.40;;;;;;4972116;28;20054;-73
2022/05/08 09:07:33;;;;;;;10.73;2.13;;;15.00;89.60;;;;;;4965012;28;20042;-73
2022/05/08 09:10:13;;;;;;;9.30;2.00;;;15.00;88.30;;;;;;4965029;28;20100;-73
2022/05/08 09:12:42;;;;;;;8.85;2.10;;;15.00;86.60;;;;;;4972667;28;20039;-73
2022/05/08 09:15:22;;;;;;;9.65;2.15;;;15.10;80.80;;;;;;4973897;28;20038;-73
2022/05/08 09:17:50;;;;;;;12.10;2.28;;;15.30;82.30;;;;;;4972441;28;20074;-73
2022/05/08 09:20:41;;;;;;;9.35;2.15;;;15.40;83.80;;;;;;4957655;28;20031;-73
2022/05/08 09:23:16;;;;;;;11.52;2.15;;;15.60;83.70;;;;;;4967001;28;20046;-72
2022/05/08 09:25:52;;;;;;;9.05;2.00;;;15.70;81.30;;;;;;4970157;28;20047;-72
2022/05/08 09:28:47;;;;;;;10.15;2.58;;;15.80;78.70;;;;;;4969553;28;20039;-72
2022/05/08 09:31:15;;;;;;;11.00;2.65;;;16.10;78.90;;;;;;4963483;28;20066;-73
2022/05/08 09:33:48;;;;;;;10.60;2.28;;;16.10;75.70;;;;;;4973380;28;20043;-72
2022/05/08 09:36:19;;;;;;;14.27;2.58;;;16.30;77.10;;;;;;4973069;28;20085;-72
2022/05/08 09:38:48;;;;;;;9.90;2.25;;;16.40;74.80;;;;;;4972145;28;20053;-72
2022/05/08 09:41:28;;;;;;;11.05;2.35;;;16.50;73.60;;;;;;4973726;28;20472;-73
2022/05/08 09:44:08;;;;;;;10.25;2.70;;;16.60;70.10;;;;;;4972768;28;20126;-74
2022/05/08 09:46:38;;;;;;;11.45;2.40;;;16.60;68.80;;;;;;4973006;28;20482;-73
2022/05/08 09:49:06;;;;;;;13.43;2.20;;;16.70;69.60;;;;;;4967438;28;20101;-71
2022/05/08 09:51:33;;;;;;;9.88;2.47;;;16.90;68.40;;;;;;4968551;28;20047;-71
2022/05/08 09:54:00;;;;;;;10.93;2.33;;;17.10;66.90;;;;;;4964040;28;20035;-71
2022/05/08 09:56:25;;;;;;;9.10;2.38;;;17.20;65.10;;;;;;4974538;28;20038;-71
2022/05/08 09:58:51;;;;;;;9.23;2.30;;;17.30;64.50;;;;;;4970069;28;20047;-71
2022/05/08 10:01:17;;;;;;;8.43;2.38;;;17.50;65.90;;;;;;4965230;28;20073;-71
2022/05/08 10:03:43;;;;;;;11.60;2.90;;;17.60;67.30;;;;;;4972574;28;20080;-71
2022/05/08 10:06:10;;;;;;;9.70;2.30;;;17.80;64.60;;;;;;4969754;28;20499;-71
2022/05/08 10:08:39;;;;;;;11.75;2.50;;;17.90;62.60;;;;;;4967549;28;20503;-71
2022/05/08 10:14:00;;;;;;;11.43;2.20;;;18.00;62.90;;;;;;4964595;28;20121;-71
2022/05/08 10:16:49;;;;;;;11.30;2.30;;;18.20;61.20;;;;;;4968291;28;20583;-71
2022/05/08 10:19:17;;;;;;;11.35;2.47;;;18.50;61.20;;;;;;4964247;28;20039;-70
2022/05/08 10:22:13;;;;;;;9.80;2.20;;;18.50;57.50;;;;;;4969024;28;20406;-71
2022/05/08 10:24:54;;;;;;;13.10;2.40;;;18.50;57.90;;;;;;4970717;28;20047;-70
2022/05/08 10:27:32;;;;;;;10.23;2.17;;;18.50;59.90;;;;;;4971962;28;20057;-71
2022/05/08 10:29:58;;;;;;;11.07;2.60;;;18.60;57.80;;;;;;4973040;28;20398;-71
2022/05/08 10:32:31;;;;;;;12.30;2.72;;;18.70;56.50;;;;;;4971820;28;20043;-70
2022/05/08 10:35:27;;;;;;;7.65;2.22;;;18.80;57.20;;;;;;4972283;28;20401;-70
2022/05/08 10:38:16;;;;;;;9.98;2.30;;;19.00;55.00;;;;;;4971902;28;20047;-70
2022/05/08 10:40:42;;;;;;;8.40;2.22;;;19.30;57.10;;;;;;4971559;28;20054;-71
2022/05/08 10:43:10;;;;;;;9.20;2.13;;;19.20;56.20;;;;;;4971999;28;20038;-71
2022/05/08 10:45:40;;;;;;;8.30;2.15;;;19.10;56.40;;;;;;4972102;28;20390;-70
2022/05/08 10:48:15;;;;;;;8.55;2.20;;;19.30;53.80;;;;;;4972029;28;20402;-70
2022/05/08 10:50:42;;;;;;;8.25;2.15;;;19.30;55.10;;;;;;4973865;28;20043;-71
2022/05/08 10:53:22;;;;;;;9.07;2.05;;;19.60;53.20;;;;;;4976790;28;20390;-70
2022/05/08 10:55:48;;;;;;;11.05;2.28;;;19.90;51.50;;;;;;4976182;28;20047;-71
2022/05/08 10:58:14;;;;;;;10.65;2.60;;;20.00;52.20;;;;;;4975632;28;20533;-71
2022/05/08 11:00:39;;;;;;;8.48;2.13;;;20.10;51.50;;;;;;4976753;28;20049;-71
2022/05/08 11:03:05;;;;;;;8.27;2.20;;;20.30;51.60;;;;;;4975837;28;20160;-70
2022/05/08 11:05:39;;;;;;;9.93;2.20;;;20.30;49.80;;;;;;4976776;28;20525;-70
2022/05/08 11:08:11;;;;;;;9.45;2.30;;;20.50;52.90;;;;;;4975554;28;20053;-71
2022/05/08 11:10:38;;;;;;;9.97;2.13;;;20.60;51.70;;;;;;4976564;28;20097;-71
2022/05/08 11:13:12;;;;;;;8.77;2.22;;;20.60;50.40;;;;;;4976636;28;20360;-71
2022/05/08 11:15:50;;;;;;;7.60;2.08;;;20.50;49.50;;;;;;4975731;28;20043;-71
2022/05/08 11:18:24;;;;;;;10.63;2.35;;;20.40;50.80;;;;;;4976535;28;20654;-71
2022/05/08 11:20:59;;;;;;;8.93;2.20;;;20.60;50.30;;;;;;4975138;28;20084;-71
2022/05/08 11:23:27;;;;;;;12.15;2.47;;;20.80;50.40;;;;;;4976523;28;20038;-71
2022/05/08 11:25:55;;;;;;;8.20;2.33;;;20.90;48.60;;;;;;4975244;28;20086;-71
2022/05/08 11:28:22;;;;;;;8.30;2.58;;;20.80;48.10;;;;;;4975127;28;20051;-71
2022/05/08 11:30:50;;;;;;;11.02;2.40;;;20.90;47.20;;;;;;4975126;28;20046;-71
2022/05/08 11:36:11;;;;;;;8.95;1.98;;;21.10;48.90;;;;;;4976294;28;20053;-71
2022/05/08 11:38:44;;;;;;;8.35;2.40;;;21.20;47.50;;;;;;4975119;28;20035;-71
2022/05/08 11:41:15;;;;;;;7.18;2.03;;;21.30;46.10;;;;;;4975835;28;20042;-71
2022/05/08 11:43:49;;;;;;;5.85;2.17;;;21.50;47.10;;;;;;4974938;28;20038;-71
2022/05/08 11:46:20;;;;;;;7.82;2.20;;;21.50;45.80;;;;;;4974919;28;20047;-71
2022/05/08 11:48:47;;;;;;;6.38;2.20;;;21.50;44.30;;;;;;4974764;28;20050;-71
2022/05/08 11:51:16;;;;;;;9.38;2.13;;;21.60;46.10;;;;;;4974350;28;20050;-71
2022/05/08 11:53:45;;;;;;;9.50;2.70;;;21.70;44.90;;;;;;4971172;28;20181;-71
2022/05/08 11:56:34;;;;;;;10.38;1.98;;;21.60;46.50;;;;;;4964737;28;20027;-71
2022/05/08 11:59:03;;;;;;;8.63;2.40;;;21.60;45.90;;;;;;4971621;28;20054;-71
2022/05/08 12:01:34;;;;;;;10.27;2.30;;;21.90;44.60;;;;;;4965495;28;20042;-71
2022/05/08 12:04:21;;;;;;;11.20;2.30;;;22.10;45.70;;;;;;4971129;28;20035;-71
2022/05/08 12:07:10;;;;;;;9.95;2.35;;;22.30;43.90;;;;;;4969756;28;20051;-72
2022/05/08 12:09:38;;;;;;;10.45;2.42;;;22.20;43.80;;;;;;4970540;28;20039;-71
2022/05/08 12:12:28;;;;;;;8.43;2.38;;;22.30;42.50;;;;;;4973261;28;20076;-71
2022/05/08 12:14:59;;;;;;;11.23;2.60;;;22.40;43.40;;;;;;4974427;28;20038;-71
2022/05/08 12:17:26;;;;;;;9.93;2.65;;;22.30;43.30;;;;;;4974797;28;20082;-69
2022/05/08 12:19:59;;;;;;;8.65;2.10;;;22.30;44.40;;;;;;4977891;28;20069;-70
2022/05/08 12:22:27;;;;;;;10.02;2.63;;;22.40;41.00;;;;;;4969448;28;20050;-71
2022/05/08 12:24:54;;;;;;;8.95;2.30;;;22.40;42.60;;;;;;4972992;28;20050;-71
2022/05/08 12:27:20;;;;;;;9.98;2.60;;;22.40;42.40;;;;;;4980822;28;20042;-72
2022/05/08 12:29:46;;;;;;;10.00;2.47;;;22.70;43.40;;;;;;4961076;28;20039;-72
2022/05/08 12:32:14;;;;;;;12.65;2.45;;;22.70;45.10;;;;;;4964733;28;20053;-71
2022/05/08 12:34:41;;;;;;;11.93;2.75;;;22.80;43.50;;;;;;4967756;28;20079;-72
2022/05/08 12:37:11;;;;;;;9.00;2.40;;;23.00;43.60;;;;;;4966226;28;20094;-70
2022/05/08 12:39:40;;;;;;;9.55;2.50;;;23.00;42.90;;;;;;4967202;28;20034;-71
2022/05/08 12:42:07;;;;;;;7.15;2.15;;;23.10;43.90;;;;;;4985228;28;20054;-71
2022/05/08 12:44:34;;;;;;;11.75;3.03;;;23.00;42.80;;;;;;4970465;28;20041;-72
2022/05/08 12:47:00;;;;;;;10.25;2.20;;;23.10;41.60;;;;;;4966560;28;20047;-72
2022/05/08 12:49:26;;;;;;;8.23;2.30;;;23.00;41.10;;;;;;4970247;28;20044;-72
2022/05/08 12:51:52;;;;;;;8.48;2.58;;;22.90;40.90;;;;;;4968268;28;20126;-72
2022/05/08 12:54:19;;;;;;;9.93;2.58;;;22.70;43.30;;;;;;4970558;28;20069;-72
2022/05/08 12:56:45;;;;;;;10.73;2.50;;;22.60;42.40;;;;;;4970947;28;20568;-72
2022/05/08 13:01:55;;;;;;;9.13;2.15;;;22.70;43.00;;;;;;4960195;28;20054;-71
2022/05/08 13:04:21;;;;;;;11.18;2.47;;;22.90;41.50;;;;;;4967619;28;20045;-71
2022/05/08 13:06:47;;;;;;;11.30;3.03;;;23.00;42.80;;;;;;4972285;28;20050;-71
2022/05/08 13:09:13;;;;;;;10.45;2.85;;;23.00;42.30;;;;;;4966486;28;20054;-71
2022/05/08 13:11:39;;;;;;;10.02;2.53;;;23.10;42.70;;;;;;4972501;28;20121;-72
2022/05/08 13:14:05;;;;;;;8.15;2.50;;;23.10;42.10;;;;;;4964134;28;20066;-75
2022/05/08 13:16:32;;;;;;;8.50;2.40;;;23.20;42.30;;;;;;4988396;28;20445;-74